Time;durP1;ratioP1;P1;durP2;ratioP2;P2;SDS_P1;SDS_P2;PMS_P1;PMS_P2;Temp;Humidity;BMP_temperature;BMP_pressure;BME280_temperature;BME280_humidity;BME280_pressure;Samples;Min_cycle;Max_cycle;Signal;HPM_P1;HPM_P2
2022/03/23 00:02:23;;;;;;;13.50;9.23;;;;;;;11.05;38.09;101243.91;5021645;28;20052;-85
2022/03/23 00:04:50;;;;;;;14.23;9.57;;;;;;;11.03;38.02;101247.63;4979101;28;20481;-85
2022/03/23 00:07:17;;;;;;;13.90;9.25;;;;;;;11.02;38.29;101244.13;4982795;28;20047;-85
2022/03/23 00:09:44;;;;;;;15.00;9.68;;;;;;;11.00;38.47;101246.03;4986453;28;20041;-84
2022/03/23 00:12:23;;;;;;;17.08;9.82;;;;;;;10.95;37.99;101244.66;5005903;28;20060;-82
2022/03/23 00:14:50;;;;;;;15.18;9.95;;;;;;;10.94;37.79;101249.13;4964184;28;20482;-85
2022/03/23 00:17:17;;;;;;;13.43;9.18;;;;;;;10.92;38.36;101247.50;4983435;28;20070;-85
2022/03/23 00:19:44;;;;;;;18.42;9.70;;;;;;;10.89;38.46;101245.91;4999134;28;20034;-84
2022/03/23 00:22:11;;;;;;;15.32;10.13;;;;;;;10.86;38.57;101246.09;4963450;28;20050;-85
2022/03/23 00:24:38;;;;;;;14.55;9.85;;;;;;;10.84;38.57;101245.38;4982816;28;20377;-84
2022/03/23 00:27:04;;;;;;;16.40;10.00;;;;;;;10.82;38.78;101244.63;4982255;28;20070;-85
2022/03/23 00:29:31;;;;;;;13.25;9.40;;;;;;;10.79;38.71;101244.81;5020478;28;20525;-85
2022/03/23 00:31:58;;;;;;;14.10;9.27;;;;;;;10.77;38.26;101244.91;5014829;28;20054;-85
2022/03/23 00:34:25;;;;;;;16.10;9.40;;;;;;;10.76;38.38;101242.34;4998591;28;20563;-85
2022/03/23 00:36:52;;;;;;;18.80;9.98;;;;;;;10.72;38.36;101236.41;5008592;28;20056;-85
2022/03/23 00:39:22;;;;;;;13.52;8.80;;;;;;;10.69;38.56;101241.09;4977882;28;20370;-84
2022/03/23 00:41:50;;;;;;;15.95;9.82;;;;;;;10.66;38.30;101244.78;4985191;28;20421;-84
2022/03/23 00:44:17;;;;;;;15.52;9.95;;;;;;;10.62;38.15;101245.94;4988490;28;20088;-83
2022/03/23 00:46:44;;;;;;;14.60;9.70;;;;;;;10.59;38.22;101246.16;4998392;28;20041;-85
2022/03/23 00:49:11;;;;;;;16.20;9.85;;;;;;;10.56;38.42;101249.00;5012854;28;20096;-85
2022/03/23 00:51:37;;;;;;;15.48;9.88;;;;;;;10.54;38.53;101246.44;4998984;28;20073;-85
2022/03/23 00:54:04;;;;;;;15.88;10.00;;;;;;;10.53;38.60;101251.84;4985067;28;20054;-85
2022/03/23 00:56:33;;;;;;;15.98;9.88;;;;;;;10.51;38.83;101251.13;4993076;28;20059;-85
2022/03/23 00:58:59;;;;;;;13.10;9.50;;;;;;;10.48;38.75;101244.19;4988564;28;21651;-85
2022/03/23 01:01:58;;;;;;;18.77;9.80;;;;;;;10.32;39.88;101246.97;4973890;28;20548;-85
2022/03/23 01:04:25;;;;;;;12.68;8.73;;;;;;;10.45;38.73;101251.50;4969983;28;20050;-85
2022/03/23 01:06:52;;;;;;;15.52;9.43;;;;;;;10.41;38.96;101249.06;4968924;28;20045;-84
2022/03/23 01:09:22;;;;;;;15.25;9.15;;;;;;;10.40;38.92;101251.78;4974046;28;20100;-85
2022/03/23 01:11:58;;;;;;;14.93;9.63;;;;;;;10.29;39.70;101252.50;4995578;28;20049;-84
2022/03/23 01:19:08;;;;;;;13.63;8.88;;;;;;;10.24;39.50;101256.38;4983989;28;20045;-85
2022/03/23 01:21:36;;;;;;;21.25;10.18;;;;;;;10.24;39.38;101251.91;4971538;28;20053;-85
2022/03/23 01:24:02;;;;;;;14.45;9.52;;;;;;;10.23;39.00;101250.22;4945212;28;20454;-85
2022/03/23 01:26:29;;;;;;;14.63;10.10;;;;;;;10.22;39.38;101243.19;4991334;28;20046;-85
2022/03/23 01:28:56;;;;;;;13.93;8.60;;;;;;;10.20;39.22;101251.25;4991528;28;20121;-85
2022/03/23 01:31:23;;;;;;;13.40;8.52;;;;;;;10.18;39.18;101247.84;4991448;28;20050;-85
2022/03/23 01:33:50;;;;;;;13.95;9.50;;;;;;;10.15;39.17;101258.66;4981890;28;20038;-84
2022/03/23 01:36:19;;;;;;;13.13;9.05;;;;;;;10.13;39.29;101251.75;4986281;28;20447;-84
2022/03/23 01:38:46;;;;;;;14.23;9.55;;;;;;;10.10;39.35;101250.16;4973330;28;20125;-85
2022/03/23 01:41:14;;;;;;;19.52;9.30;;;;;;;10.09;39.52;101248.44;5000973;28;20134;-85
2022/03/23 01:43:41;;;;;;;13.00;8.80;;;;;;;10.07;39.14;101252.97;4980249;28;20049;-85
2022/03/23 01:46:07;;;;;;;18.40;9.73;;;;;;;10.06;39.30;101250.44;5020234;28;20427;-85
2022/03/23 01:48:34;;;;;;;14.27;9.23;;;;;;;10.03;39.17;101251.50;5001833;28;20140;-85
2022/03/23 01:51:01;;;;;;;14.38;8.75;;;;;;;9.99;39.46;101255.28;4978601;28;20054;-85
2022/03/23 01:53:29;;;;;;;15.70;9.45;;;;;;;9.95;39.15;101251.13;5005465;28;20041;-85
2022/03/23 01:55:57;;;;;;;13.13;9.10;;;;;;;9.89;39.25;101248.84;4976429;28;20057;-85
2022/03/23 01:58:25;;;;;;;13.10;8.77;;;;;;;9.85;39.38;101252.66;4995796;28;20045;-85
2022/03/23 02:00:52;;;;;;;12.50;8.55;;;;;;;9.85;39.61;101250.84;5000305;28;20070;-85
2022/03/23 02:21:29;;;;;;;14.20;9.35;;;;;;;9.51;40.42;101239.66;4977781;28;20052;-86
2022/03/23 02:23:56;;;;;;;12.95;8.25;;;;;;;9.53;40.52;101243.06;4976070;28;20096;-86
2022/03/23 02:26:23;;;;;;;15.13;8.80;;;;;;;9.55;40.28;101243.84;4998858;28;20046;-86
2022/03/23 02:28:50;;;;;;;14.57;8.40;;;;;;;9.52;40.64;101244.03;4986036;28;20072;-86
2022/03/23 02:31:17;;;;;;;14.77;9.35;;;;;;;9.50;40.72;101232.66;4984241;28;20491;-86
2022/03/23 02:33:44;;;;;;;14.60;8.48;;;;;;;9.49;40.55;101238.06;5007615;28;20076;-86
2022/03/23 02:36:11;;;;;;;12.27;8.05;;;;;;;9.49;40.96;101230.09;4964148;28;20119;-86
2022/03/23 02:38:38;;;;;;;14.40;8.75;;;;;;;9.48;40.66;101231.91;4966212;28;20401;-86
2022/03/23 02:41:05;;;;;;;16.77;9.43;;;;;;;9.46;41.14;101236.44;5015277;28;20042;-85
2022/03/23 02:43:31;;;;;;;13.70;9.00;;;;;;;9.45;40.71;101239.19;5002638;28;20038;-85
2022/03/23 02:45:58;;;;;;;14.50;9.68;;;;;;;9.43;40.72;101235.78;4994374;28;20046;-85
2022/03/23 02:48:25;;;;;;;15.75;9.40;;;;;;;9.41;40.65;101237.69;4983512;28;20053;-85
2022/03/23 02:50:52;;;;;;;13.10;9.30;;;;;;;9.38;40.97;101238.72;5012460;28;20486;-85
2022/03/23 03:02:15;;;;;;;14.73;9.13;;;;;;;9.19;41.29;101236.34;4992684;28;20163;-85
2022/03/23 03:04:42;;;;;;;16.27;9.25;;;;;;;9.24;40.93;101244.03;4960398;28;20068;-83
2022/03/23 03:07:09;;;;;;;12.40;8.52;;;;;;;9.21;41.01;101252.13;4991907;28;20044;-85
2022/03/23 03:09:36;;;;;;;13.65;8.88;;;;;;;9.20;41.25;101245.97;4998310;28;20502;-85
2022/03/23 03:12:04;;;;;;;13.07;8.82;;;;;;;9.19;41.04;101246.09;5009489;28;20088;-82
2022/03/23 03:14:31;;;;;;;14.90;8.63;;;;;;;9.18;41.40;101250.53;5014316;28;20044;-85
2022/03/23 03:16:58;;;;;;;11.50;7.68;;;;;;;9.17;41.10;101258.56;4978712;28;20125;-85
2022/03/23 03:19:25;;;;;;;13.07;8.68;;;;;;;9.11;41.25;101258.00;4993990;28;20119;-85
2022/03/23 03:21:51;;;;;;;11.90;8.50;;;;;;;9.09;41.66;101259.88;5021204;28;20052;-85
2022/03/23 03:24:20;;;;;;;13.48;8.82;;;;;;;9.06;41.27;101262.72;4981488;28;20053;-85
2022/03/23 03:31:20;;;;;;;14.65;8.32;;;;;;;8.88;41.43;101269.97;4996540;28;20033;-85
2022/03/23 03:33:47;;;;;;;12.98;8.45;;;;;;;8.87;41.74;101262.94;4984632;28;20105;-84
2022/03/23 03:36:15;;;;;;;12.25;8.77;;;;;;;8.85;41.55;101269.25;5000895;28;20053;-85
2022/03/23 03:38:42;;;;;;;12.35;8.35;;;;;;;8.83;41.82;101268.53;4979052;28;20041;-85
2022/03/23 03:41:09;;;;;;;11.98;8.10;;;;;;;8.80;42.04;101272.22;4999310;28;20041;-85
2022/03/23 03:43:37;;;;;;;14.68;8.30;;;;;;;8.77;41.98;101280.31;4996110;28;20053;-85
2022/03/23 03:46:06;;;;;;;16.25;8.77;;;;;;;8.76;41.99;101281.25;4997245;28;20053;-85
2022/03/23 03:48:33;;;;;;;11.70;8.40;;;;;;;8.75;42.03;101278.69;5010377;28;20064;-85
2022/03/23 03:51:00;;;;;;;13.40;8.30;;;;;;;8.72;42.09;101282.38;5000290;28;20678;-85
2022/03/23 03:53:27;;;;;;;12.48;7.93;;;;;;;8.70;42.17;101292.19;5017864;28;20081;-85
2022/03/23 03:56:04;;;;;;;13.32;8.30;;;;;;;8.69;42.20;101293.13;4971623;28;20049;-85
2022/03/23 03:58:31;;;;;;;13.23;8.60;;;;;;;8.67;42.42;101287.06;5017172;28;20042;-84
2022/03/23 04:00:57;;;;;;;14.27;8.35;;;;;;;8.64;42.29;101289.91;5004518;28;20041;-85
2022/03/23 04:03:24;;;;;;;12.82;8.48;;;;;;;8.58;42.01;101285.81;4999693;28;20058;-85
2022/03/23 04:05:51;;;;;;;15.57;8.30;;;;;;;8.55;42.67;101285.13;5024183;28;20512;-83
2022/03/23 04:08:18;;;;;;;11.75;7.97;;;;;;;8.55;42.75;101287.78;5019222;28;20072;-86
2022/03/23 04:10:45;;;;;;;12.85;8.57;;;;;;;8.51;42.55;101287.09;4981427;28;20397;-85
2022/03/23 04:13:13;;;;;;;13.43;8.60;;;;;;;8.48;42.90;101287.28;4977969;28;20260;-79
2022/03/23 04:15:40;;;;;;;12.45;8.60;;;;;;;8.41;42.54;101289.41;5016616;28;20045;-80
2022/03/23 04:18:07;;;;;;;11.98;8.15;;;;;;;8.37;43.09;101294.91;4993162;28;20108;-80
2022/03/23 04:20:35;;;;;;;14.30;9.20;;;;;;;8.36;43.21;101294.06;4980336;28;20049;-80
2022/03/23 04:23:04;;;;;;;13.27;8.57;;;;;;;8.32;43.60;101289.03;5002430;28;20077;-80
2022/03/23 04:25:33;;;;;;;13.93;9.05;;;;;;;8.28;43.66;101301.59;5013434;28;20052;-80
2022/03/23 04:28:00;;;;;;;14.73;8.77;;;;;;;8.27;43.33;101300.75;4984214;28;20042;-80
2022/03/23 04:30:31;;;;;;;15.13;8.38;;;;;;;8.25;43.98;101299.97;4960203;28;20046;-81
2022/03/23 04:32:59;;;;;;;13.93;8.48;;;;;;;8.27;43.29;101305.19;4968592;28;20042;-80
2022/03/23 04:35:26;;;;;;;14.07;8.60;;;;;;;8.27;43.34;101302.53;4996006;28;20073;-80
2022/03/23 04:37:53;;;;;;;12.70;8.30;;;;;;;8.26;43.38;101300.81;4994697;28;20045;-80
2022/03/23 04:40:22;;;;;;;13.20;8.70;;;;;;;8.24;43.12;101300.03;4988871;28;20517;-80
2022/03/23 04:42:49;;;;;;;12.43;8.23;;;;;;;8.23;43.06;101307.13;4983598;28;20038;-81
2022/03/23 04:45:16;;;;;;;15.15;8.63;;;;;;;8.23;43.16;101306.28;4997282;28;20510;-80
2022/03/23 04:47:44;;;;;;;15.00;8.43;;;;;;;8.19;43.03;101308.25;5013384;28;20042;-80
2022/03/23 04:50:12;;;;;;;12.50;8.30;;;;;;;8.17;42.91;101296.91;5002699;28;20083;-80
2022/03/23 04:52:40;;;;;;;14.52;8.10;;;;;;;8.15;43.17;101312.00;4997806;28;20081;-79
2022/03/23 04:55:12;;;;;;;13.90;8.48;;;;;;;8.11;43.19;101306.94;4988452;28;20532;-79
2022/03/23 04:57:39;;;;;;;14.35;7.78;;;;;;;8.10;42.86;101313.19;4959606;28;20057;-81
2022/03/23 05:00:13;;;;;;;12.45;8.40;;;;;;;8.09;42.75;101312.34;4967689;28;20647;-81
2022/03/23 05:02:45;;;;;;;11.48;7.82;;;;;;;8.04;43.12;101311.75;5007073;28;20169;-81
2022/03/23 05:05:13;;;;;;;11.82;7.47;;;;;;;8.04;43.04;101311.75;4974174;28;20038;-82
2022/03/23 05:07:44;;;;;;;12.00;6.75;;;;;;;7.98;43.01;101318.19;4981921;28;20065;-79
2022/03/23 05:10:13;;;;;;;10.65;7.65;;;;;;;7.96;42.68;101313.94;4969804;28;20061;-80
2022/03/23 05:12:42;;;;;;;12.02;7.80;;;;;;;7.97;43.26;101318.28;4981528;28;20039;-79
2022/03/23 05:15:09;;;;;;;12.23;7.82;;;;;;;7.95;43.00;101317.50;4992856;28;20076;-82
2022/03/23 05:17:37;;;;;;;11.98;7.80;;;;;;;7.93;43.14;101329.97;4998475;28;20072;-83
2022/03/23 05:20:05;;;;;;;12.65;7.70;;;;;;;7.90;43.27;101323.03;5001214;28;20038;-82
2022/03/23 05:22:33;;;;;;;12.60;7.10;;;;;;;7.88;43.20;101324.91;5016893;28;20051;-81
2022/03/23 05:25:00;;;;;;;13.88;7.70;;;;;;;7.87;43.56;101328.50;4981833;28;20045;-79
2022/03/23 05:27:26;;;;;;;12.52;7.82;;;;;;;7.86;43.36;101323.28;4997580;28;20522;-79
2022/03/23 05:29:53;;;;;;;14.23;8.27;;;;;;;7.84;43.92;101333.97;4972658;28;20045;-80
2022/03/23 05:32:20;;;;;;;11.55;7.63;;;;;;;7.81;43.58;101340.28;5005973;28;20042;-80
2022/03/23 05:34:48;;;;;;;11.93;7.50;;;;;;;7.80;43.86;101335.06;4976113;28;20115;-80
2022/03/23 05:37:16;;;;;;;13.02;8.27;;;;;;;7.77;43.51;101340.50;4974302;28;20070;-80
2022/03/23 05:39:44;;;;;;;13.02;8.00;;;;;;;7.76;43.89;101337.00;4992694;28;20052;-79
2022/03/23 05:42:11;;;;;;;11.68;7.95;;;;;;;7.74;43.72;101341.53;4994041;28;20047;-79
2022/03/23 05:44:38;;;;;;;13.18;8.38;;;;;;;7.74;43.97;101340.69;5011688;28;20049;-79
2022/03/23 05:47:05;;;;;;;11.88;8.38;;;;;;;7.72;43.69;101340.75;4981908;28;20041;-79
2022/03/23 05:49:32;;;;;;;14.43;8.05;;;;;;;7.70;44.16;101336.47;4996436;28;20473;-79
2022/03/23 05:51:58;;;;;;;12.85;7.95;;;;;;;7.68;43.93;101343.63;4982536;28;20045;-80
2022/03/23 05:54:25;;;;;;;15.35;8.90;;;;;;;7.66;43.97;101342.84;4976558;28;21232;-79
2022/03/23 05:56:52;;;;;;;10.80;7.70;;;;;;;7.65;43.95;101344.63;4988732;28;20383;-79
2022/03/23 05:59:19;;;;;;;14.07;8.35;;;;;;;7.64;44.06;101345.59;4992726;28;20054;-80
2022/03/23 06:01:46;;;;;;;12.55;8.23;;;;;;;7.61;43.88;101348.41;4969950;28;20111;-79
2022/03/23 06:04:13;;;;;;;13.82;8.60;;;;;;;7.57;44.17;101347.69;4974652;28;20881;-79
2022/03/23 06:06:41;;;;;;;14.27;8.57;;;;;;;7.55;44.02;101346.06;4985709;28;20406;-80
2022/03/23 06:09:07;;;;;;;12.50;8.05;;;;;;;7.51;44.03;101345.38;4974800;28;20138;-82
2022/03/23 06:11:34;;;;;;;14.98;8.73;;;;;;;7.52;44.24;101352.34;4965490;28;20069;-80
2022/03/23 06:14:01;;;;;;;21.85;8.48;;;;;;;7.52;43.96;101339.13;4992701;28;20627;-79
2022/03/23 06:16:28;;;;;;;11.80;7.32;;;;;;;7.52;44.06;101348.84;4974619;28;20038;-79
2022/03/23 06:18:55;;;;;;;12.00;7.30;;;;;;;7.52;44.33;101346.22;4982443;28;20133;-79
2022/03/23 06:21:22;;;;;;;20.90;7.82;;;;;;;7.52;43.98;101349.72;4994479;28;20449;-79
2022/03/23 06:23:49;;;;;;;11.63;8.32;;;;;;;7.49;44.32;101349.88;4999790;28;20622;-80
2022/03/23 06:26:21;;;;;;;12.93;8.05;;;;;;;7.46;43.97;101352.69;5020174;28;20578;-80
2022/03/23 06:28:48;;;;;;;14.20;8.20;;;;;;;7.45;44.17;101350.09;4996175;28;20120;-79
2022/03/23 06:31:15;;;;;;;16.33;7.78;;;;;;;7.45;44.05;101355.38;5013095;28;20111;-80
2022/03/23 06:33:41;;;;;;;13.05;8.10;;;;;;;7.43;44.55;101352.84;4983122;28;20046;-80
2022/03/23 06:36:08;;;;;;;12.75;7.35;;;;;;;7.44;44.28;101357.19;4976887;28;20038;-80
2022/03/23 06:38:35;;;;;;;16.25;9.07;;;;;;;7.41;44.91;101353.84;4972673;28;20086;-80
2022/03/23 06:41:02;;;;;;;14.35;8.55;;;;;;;7.42;44.58;101361.69;4991719;28;20053;-79
2022/03/23 06:43:29;;;;;;;13.93;9.32;;;;;;;7.43;44.60;101365.16;5009536;28;20052;-79
2022/03/23 06:45:55;;;;;;;14.23;8.35;;;;;;;7.43;44.63;101360.78;4970674;28;20073;-80
2022/03/23 06:48:22;;;;;;;15.68;8.65;;;;;;;7.45;44.60;101358.88;5003977;28;20050;-79
2022/03/23 06:50:49;;;;;;;12.38;8.02;;;;;;;7.46;44.80;101365.03;4993467;28;20046;-79
2022/03/23 06:53:16;;;;;;;20.27;8.60;;;;;;;7.46;44.71;101368.53;5012492;28;20080;-79
2022/03/23 06:55:43;;;;;;;17.17;9.35;;;;;;;7.49;44.74;101367.53;4974919;28;20105;-79
2022/03/23 06:58:09;;;;;;;16.52;9.75;;;;;;;7.50;45.18;101362.13;5000843;28;20046;-80
2022/03/23 07:00:36;;;;;;;13.27;9.18;;;;;;;7.52;44.85;101370.84;5010462;28;20049;-79
2022/03/23 07:03:05;;;;;;;24.42;9.13;;;;;;;7.51;45.18;101366.50;4980902;28;20050;-79
2022/03/23 07:05:34;;;;;;;15.23;9.98;;;;;;;7.49;45.44;101368.38;4989545;28;20042;-80
2022/03/23 07:10:53;;;;;;;17.75;9.68;;;;;;;7.53;45.75;101372.59;4997357;28;20050;-79
2022/03/23 07:13:19;;;;;;;16.98;9.75;;;;;;;7.47;45.96;101372.88;4999254;28;20049;-80
2022/03/23 07:15:47;;;;;;;17.95;10.57;;;;;;;7.53;45.84;101374.34;4987345;28;20606;-81
2022/03/23 07:18:14;;;;;;;16.10;9.73;;;;;;;7.58;45.71;101372.31;4979617;28;20046;-79
2022/03/23 07:20:41;;;;;;;15.73;9.68;;;;;;;7.59;46.07;101372.25;4999467;28;20551;-80
2022/03/23 07:23:08;;;;;;;14.73;8.80;;;;;;;7.63;45.99;101378.22;5003577;28;20389;-80
2022/03/23 07:25:34;;;;;;;15.35;9.60;;;;;;;7.67;46.21;101374.50;5014131;28;20053;-79
2022/03/23 07:28:02;;;;;;;17.40;9.65;;;;;;;7.70;46.12;101378.78;5005397;28;20045;-80
2022/03/23 07:30:30;;;;;;;17.05;9.60;;;;;;;7.57;46.85;101383.84;5014224;28;21513;-80
2022/03/23 07:32:57;;;;;;;15.15;9.02;;;;;;;7.64;46.46;101379.97;4990296;28;20038;-80
2022/03/23 07:35:24;;;;;;;17.77;9.60;;;;;;;7.65;47.01;101386.09;5014214;28;20045;-80
2022/03/23 07:37:50;;;;;;;14.20;9.10;;;;;;;7.58;47.11;101382.91;5013491;28;20460;-80
2022/03/23 07:40:17;;;;;;;14.35;9.43;;;;;;;7.66;47.06;101382.50;5019842;28;20041;-79
2022/03/23 07:42:44;;;;;;;16.45;9.18;;;;;;;7.66;47.18;101379.84;5016923;28;20237;-80
2022/03/23 07:45:11;;;;;;;15.55;10.93;;;;;;;7.58;48.02;101382.91;5014427;28;20495;-80
2022/03/23 07:47:43;;;;;;;16.00;9.82;;;;;;;7.60;47.72;101381.03;5012480;28;20045;-80
2022/03/23 07:50:11;;;;;;;18.20;9.65;;;;;;;7.60;47.70;101389.81;4986924;28;20121;-81
2022/03/23 07:52:37;;;;;;;14.63;9.57;;;;;;;7.59;47.88;101384.63;4969127;28;20112;-78
2022/03/23 07:55:04;;;;;;;13.98;9.20;;;;;;;7.68;47.85;101385.94;4977013;28;20042;-78
2022/03/23 07:57:31;;;;;;;12.85;8.95;;;;;;;7.63;47.95;101391.44;5006774;28;20120;-78
2022/03/23 07:59:58;;;;;;;15.75;10.57;;;;;;;7.63;48.47;101390.59;4983919;28;20042;-78
2022/03/23 08:02:26;;;;;;;17.90;9.95;;;;;;;7.64;48.04;101394.97;4968716;28;20144;-78
2022/03/23 08:04:54;;;;;;;15.43;9.82;;;;;;;7.70;48.02;101390.19;5004192;28;20057;-79
2022/03/23 08:07:21;;;;;;;15.43;8.75;;;;;;;7.74;48.02;101393.56;5012891;28;20224;-78
2022/03/23 08:09:48;;;;;;;17.40;9.75;;;;;;;7.79;48.09;101392.38;5008374;28;20077;-78
2022/03/23 08:12:17;;;;;;;14.07;9.45;;;;;;;7.82;47.77;101394.84;5016029;28;20054;-78
2022/03/23 08:14:44;;;;;;;19.60;10.10;;;;;;;7.82;48.43;101394.00;5015371;28;20510;-78
2022/03/23 08:17:17;;;;;;;17.98;11.38;;;;;;;7.88;48.04;101401.63;4963687;28;20061;-78
2022/03/23 08:19:44;;;;;;;14.98;10.35;;;;;;;7.92;48.00;101397.88;4982405;28;20045;-78
2022/03/23 08:22:11;;;;;;;18.13;10.13;;;;;;;7.96;48.25;101402.09;4977300;28;20061;-78
2022/03/23 08:24:38;;;;;;;20.27;10.93;;;;;;;7.94;48.53;101396.03;4991657;28;20582;-78
2022/03/23 08:27:04;;;;;;;17.45;10.98;;;;;;;8.02;48.63;101391.19;4970910;28;20034;-78
2022/03/23 08:29:31;;;;;;;15.52;10.38;;;;;;;8.07;48.70;101393.59;4974159;28;20490;-78
2022/03/23 08:31:58;;;;;;;19.63;11.40;;;;;;;7.99;48.72;101398.44;5013821;28;20502;-79
2022/03/23 08:34:26;;;;;;;16.58;10.13;;;;;;;8.08;48.51;101390.00;5017415;28;20114;-78
2022/03/23 08:36:53;;;;;;;21.08;11.05;;;;;;;8.12;48.15;101388.06;5010068;28;20068;-78
2022/03/23 08:39:19;;;;;;;17.60;10.00;;;;;;;8.12;48.40;101390.69;4995463;28;20052;-78
2022/03/23 08:41:46;;;;;;;18.67;10.35;;;;;;;8.18;48.27;101393.84;5002268;28;20041;-78
2022/03/23 08:44:13;;;;;;;14.98;9.75;;;;;;;8.18;47.99;101388.56;4993843;28;20049;-78
2022/03/23 08:46:40;;;;;;;17.33;10.13;;;;;;;8.24;47.83;101395.31;4990519;28;20671;-79
2022/03/23 08:49:07;;;;;;;16.65;10.05;;;;;;;8.23;47.92;101389.16;4992564;28;20041;-78
2022/03/23 08:51:34;;;;;;;16.33;10.38;;;;;;;8.25;47.71;101379.34;4984887;28;20060;-77
2022/03/23 08:54:01;;;;;;;17.70;10.48;;;;;;;8.27;47.67;101374.84;5005460;28;20049;-78
2022/03/23 08:56:28;;;;;;;16.90;9.95;;;;;;;8.32;47.87;101373.72;4972281;28;20034;-78
2022/03/23 08:58:54;;;;;;;17.20;10.50;;;;;;;8.34;47.63;101374.50;5004086;28;20081;-78
2022/03/23 09:01:21;;;;;;;16.70;9.93;;;;;;;8.36;47.17;101370.81;5003427;28;20052;-78
2022/03/23 09:03:49;;;;;;;15.20;9.85;;;;;;;8.37;47.48;101369.91;4983615;28;20041;-78
2022/03/23 09:06:16;;;;;;;13.40;9.27;;;;;;;8.42;47.01;101375.84;4970687;28;20065;-78
2022/03/23 09:08:43;;;;;;;14.93;10.30;;;;;;;8.40;46.92;101375.06;5013326;28;20103;-78
2022/03/23 09:11:11;;;;;;;17.48;10.25;;;;;;;8.46;47.00;101384.47;5009242;28;20042;-78
2022/03/23 09:13:38;;;;;;;16.08;10.05;;;;;;;8.49;47.04;101384.28;5011749;28;20070;-78
2022/03/23 09:16:05;;;;;;;18.88;10.43;;;;;;;8.54;46.81;101378.75;4981255;28;20050;-78
2022/03/23 09:18:32;;;;;;;15.68;9.95;;;;;;;8.54;46.85;101381.38;4975474;28;21540;-78
2022/03/23 09:20:59;;;;;;;17.50;9.93;;;;;;;8.56;47.08;101371.56;5000614;28;20046;-78
2022/03/23 09:23:31;;;;;;;17.20;9.77;;;;;;;8.59;46.49;101374.88;4999493;28;20686;-77
2022/03/23 09:26:01;;;;;;;17.67;10.27;;;;;;;8.60;46.50;101371.31;5000771;28;20046;-78
2022/03/23 09:28:27;;;;;;;14.23;9.50;;;;;;;8.64;46.25;101369.34;5005851;28;20057;-78
2022/03/23 09:30:54;;;;;;;16.80;10.90;;;;;;;8.66;46.18;101367.47;4987900;28;20054;-78
2022/03/23 09:33:21;;;;;;;18.77;10.45;;;;;;;8.67;46.44;101363.88;4961628;28;20045;-78
2022/03/23 09:35:48;;;;;;;21.65;10.68;;;;;;;8.71;46.59;101365.41;4987528;28;20058;-78
2022/03/23 09:38:15;;;;;;;16.33;10.25;;;;;;;8.79;46.96;101367.63;5012438;28;20100;-80
2022/03/23 09:40:46;;;;;;;16.55;10.25;;;;;;;8.82;47.18;101364.81;5010022;28;20045;-78
2022/03/23 09:43:14;;;;;;;16.55;9.57;;;;;;;8.81;47.09;101357.81;4994108;28;20053;-78
2022/03/23 09:48:11;;;;;;;16.75;10.27;;;;;;;8.86;46.77;101363.69;5008313;28;20072;-78
2022/03/23 09:50:39;;;;;;;19.73;11.23;;;;;;;8.86;46.95;101363.69;4996533;28;20417;-78
2022/03/23 09:53:06;;;;;;;16.42;10.75;;;;;;;8.87;46.82;101358.31;5010001;28;20056;-78
2022/03/23 09:55:33;;;;;;;18.13;10.45;;;;;;;8.93;47.28;101358.88;4981582;28;20567;-78
2022/03/23 09:58:01;;;;;;;19.05;11.80;;;;;;;8.96;47.33;101349.00;4975517;28;20082;-79
2022/03/23 10:00:37;;;;;;;17.70;11.15;;;;;;;9.02;46.74;101343.31;5005661;28;20060;-80
2022/03/23 10:03:13;;;;;;;16.98;10.85;;;;;;;9.04;46.69;101345.91;4975760;28;20050;-78
2022/03/23 10:06:01;;;;;;;19.63;11.73;;;;;;;9.06;47.11;101341.38;4984715;28;20037;-78
2022/03/23 10:08:48;;;;;;;14.38;10.68;;;;;;;9.04;46.61;101344.09;4967685;28;20441;-78
2022/03/23 10:11:52;;;;;;;16.13;11.20;;;;;;;9.05;45.88;101337.00;5003055;28;20048;-78
2022/03/23 10:14:37;;;;;;;;;;;;;;;8.96;46.19;101334.91;4976515;28;20052;-78
2022/03/23 10:17:30;;;;;;;14.85;10.55;;;;;;;9.07;45.75;101333.31;4959553;28;19972;-78
2022/03/23 10:19:58;;;;;;;16.40;11.13;;;;;;;9.20;45.87;101328.16;4983230;28;20048;-78
2022/03/23 10:22:27;;;;;;;18.77;10.98;;;;;;;9.34;45.04;101322.91;4983322;28;20056;-78
2022/03/23 10:24:54;;;;;;;16.83;11.05;;;;;;;9.32;45.71;101330.06;4984146;28;20065;-78
2022/03/23 10:27:23;;;;;;;17.00;10.55;;;;;;;9.39;44.90;101329.69;5014451;28;20046;-78
2022/03/23 10:29:52;;;;;;;14.35;10.18;;;;;;;9.41;44.81;101327.81;4990651;28;20622;-78
2022/03/23 10:32:22;;;;;;;15.93;10.30;;;;;;;9.44;44.94;101317.91;5010218;28;20096;-78
2022/03/23 10:34:55;;;;;;;17.70;11.30;;;;;;;9.53;44.70;101313.81;4983892;28;20046;-79
2022/03/23 10:37:33;;;;;;;17.05;10.73;;;;;;;9.49;43.13;101317.59;4953268;28;20626;-78
2022/03/23 10:40:07;;;;;;;19.65;10.93;;;;;;;9.59;44.11;101304.63;4961758;28;20050;-78
2022/03/23 10:42:37;;;;;;;16.70;11.27;;;;;;;9.62;43.62;101307.97;4981662;28;20646;-78
2022/03/23 10:45:13;;;;;;;17.27;10.20;;;;;;;9.71;43.65;101301.25;4977587;28;20584;-78
2022/03/23 10:47:40;;;;;;;14.73;10.43;;;;;;;9.80;43.17;101305.16;5007933;28;20045;-79
2022/03/23 10:50:13;;;;;;;17.42;9.57;;;;;;;9.85;42.84;101297.75;4999083;28;20125;-78
2022/03/23 10:52:54;;;;;;;16.58;10.73;;;;;;;9.86;41.85;101295.00;4993449;28;20042;-78
2022/03/23 10:55:23;;;;;;;14.73;9.52;;;;;;;9.91;43.30;101294.72;4948532;28;20054;-78
2022/03/23 10:57:56;;;;;;;14.13;9.98;;;;;;;9.93;42.67;101291.00;4993752;28;20046;-78
2022/03/23 11:00:37;;;;;;;12.75;9.30;;;;;;;9.86;41.72;101291.50;4976759;28;20046;-79
2022/03/23 11:03:05;;;;;;;16.17;10.68;;;;;;;9.96;42.90;101289.97;4939767;28;20050;-79
2022/03/23 11:05:36;;;;;;;15.80;10.95;;;;;;;10.06;42.00;101276.97;5007157;28;20065;-78
2022/03/23 11:08:13;;;;;;;14.25;9.73;;;;;;;9.99;41.73;101281.81;4961997;28;20184;-78
2022/03/23 11:16:36;;;;;;;12.73;10.00;;;;;;;10.04;42.39;101270.91;4916300;28;20055;-79
2022/03/23 11:19:12;;;;;;;13.25;10.48;;;;;;;10.11;41.75;101274.88;4955765;28;20501;-78
2022/03/23 11:21:58;;;;;;;13.82;10.45;;;;;;;10.12;42.31;101272.13;4993812;28;20120;-78
2022/03/23 11:24:26;;;;;;;14.07;9.48;;;;;;;10.19;42.39;101254.00;4996760;28;20046;-78
2022/03/23 11:26:55;;;;;;;15.07;10.68;;;;;;;10.41;41.00;101264.97;4949242;28;20043;-78
2022/03/23 11:29:22;;;;;;;19.50;9.48;;;;;;;10.38;41.34;101259.00;4958039;28;20057;-78
2022/03/23 11:31:49;;;;;;;12.80;9.57;;;;;;;10.35;41.26;101257.41;4955182;28;20137;-78
2022/03/23 11:34:19;;;;;;;13.02;10.73;;;;;;;10.41;40.52;101250.84;4960827;28;20054;-78
2022/03/23 11:36:48;;;;;;;12.68;9.68;;;;;;;10.40;40.25;101251.78;4986090;28;20057;-78
2022/03/23 11:39:15;;;;;;;13.25;9.52;;;;;;;10.39;40.60;101244.78;4983322;28;20425;-78
2022/03/23 11:41:43;;;;;;;14.43;9.85;;;;;;;10.41;41.25;101242.91;5016503;28;20042;-78
2022/03/23 11:44:18;;;;;;;11.52;9.48;;;;;;;10.45;40.83;101232.91;4987884;28;20039;-78
2022/03/23 11:46:47;;;;;;;15.80;9.20;;;;;;;10.50;40.60;101231.66;5004598;28;20042;-78
2022/03/23 11:49:55;;;;;;;13.73;10.10;;;;;;;10.45;38.62;101232.91;5006899;28;20690;-78
2022/03/23 11:52:36;;;;;;;12.52;9.00;;;;;;;10.57;39.77;101235.59;4927511;28;20038;-78
2022/03/23 11:57:54;;;;;;;14.00;9.25;;;;;;;10.76;38.78;101218.44;4977712;28;20056;-78
2022/03/23 12:00:22;;;;;;;13.13;9.30;;;;;;;10.79;38.97;101224.41;5019155;28;20038;-79
2022/03/23 12:02:56;;;;;;;11.65;8.85;;;;;;;10.88;38.86;101220.28;4999544;28;20065;-78
2022/03/23 12:05:29;;;;;;;13.43;8.98;;;;;;;10.87;37.87;101215.94;4992330;28;20560;-78
2022/03/23 12:08:02;;;;;;;14.77;8.63;;;;;;;10.90;38.03;101209.56;4966019;28;20054;-78
2022/03/23 12:10:32;;;;;;;12.60;8.98;;;;;;;10.90;38.07;101205.09;4992207;28;20167;-78
2022/03/23 12:13:17;;;;;;;13.57;9.95;;;;;;;10.88;35.80;101203.47;4999673;28;20045;-78
2022/03/23 12:16:01;;;;;;;12.50;9.07;;;;;;;10.91;36.96;101198.81;4980230;28;20046;-78
2022/03/23 12:18:40;;;;;;;14.20;9.70;;;;;;;10.94;37.59;101200.41;4973149;28;20941;-78
2022/03/23 12:21:11;;;;;;;12.07;9.13;;;;;;;11.00;38.21;101194.69;5008926;28;20053;-78